Time;durP1;ratioP1;P1;durP2;ratioP2;P2;SDS_P1;SDS_P2;PMS_P1;PMS_P2;Temp;Humidity;BMP_temperature;BMP_pressure;BME280_temperature;BME280_humidity;BME280_pressure;Samples;Min_cycle;Max_cycle;Signal;HPM_P1;HPM_P2
2023/10/28 00:00:40;;;;;;;;;7.00;5.00;;;;;16.68;100.00;99080.91;2062183;28;46277;-57
2023/10/28 00:01:40;;;;;;;;;4.67;2.67;;;;;16.67;100.00;99086.34;2057975;28;46348;-58
2023/10/28 00:02:40;;;;;;;;;6.00;4.00;;;;;16.64;100.00;99076.72;2054928;28;46332;-59
2023/10/28 00:03:41;;;;;;;;;12.33;12.33;;;;;16.64;100.00;99083.88;2055195;28;45834;-59
2023/10/28 00:04:41;;;;;;;;;7.33;6.33;;;;;16.65;100.00;99085.63;2054560;28;46273;-59
2023/10/28 00:05:42;;;;;;;;;3.00;3.00;;;;;16.64;100.00;99071.38;2053676;28;46687;-55
2023/10/28 00:06:42;;;;;;;;;7.00;7.00;;;;;16.64;100.00;99075.84;2054104;28;46765;-55
2023/10/28 00:07:42;;;;;;;;;6.33;3.33;;;;;16.62;100.00;99067.06;2054728;28;46957;-59
2023/10/28 00:08:43;;;;;;;;;7.00;5.67;;;;;16.63;100.00;99074.13;2062157;28;46229;-58
2023/10/28 00:09:43;;;;;;;;;5.33;5.33;;;;;16.64;100.00;99070.47;2061904;28;46030;-58
2023/10/28 00:10:45;;;;;;;;;8.00;8.00;;;;;16.66;100.00;99076.59;2054621;28;46492;-59
2023/10/28 00:11:46;;;;;;;;;2.25;2.00;;;;;16.67;100.00;99075.63;2054492;28;46442;-58
2023/10/28 00:12:49;;;;;;;;;4.00;2.75;;;;;16.66;100.00;99071.25;2054245;28;46927;-58
2023/10/28 00:13:50;;;;;;;;;10.75;4.75;;;;;16.66;100.00;99064.06;2053942;28;46122;-58
2023/10/28 00:14:51;;;;;;;;;7.00;6.33;;;;;16.67;100.00;99072.97;2059103;28;45574;-56
2023/10/28 00:15:51;;;;;;;;;9.25;6.75;;;;;16.68;100.00;99067.53;2062586;28;45698;-59
2023/10/28 00:16:51;;;;;;;;;7.00;4.67;;;;;16.67;100.00;99060.44;2062533;28;46801;-53
2023/10/28 00:17:52;;;;;;;;;5.33;3.33;;;;;16.66;100.00;99061.38;2061719;28;46688;-59
2023/10/28 00:18:52;;;;;;;;;5.00;5.00;;;;;16.66;100.00;99061.38;2062138;28;46661;-57
2023/10/28 00:19:53;;;;;;;;;4.33;2.00;;;;;16.64;100.00;99063.31;2062342;28;46126;-55
2023/10/28 00:20:55;;;;;;;;;4.00;4.00;;;;;16.63;100.00;99055.38;2062766;28;46568;-54
2023/10/28 00:21:55;;;;;;;;;4.75;3.50;;;;;16.62;100.00;99057.19;2062477;28;46466;-58
2023/10/28 00:22:57;;;;;;;;;4.00;4.00;;;;;16.65;100.00;99058.81;2062771;28;45545;-58
2023/10/28 00:23:57;;;;;;;;;2.50;2.50;;;;;16.67;100.00;99059.56;2061749;28;46118;-61
2023/10/28 00:24:58;;;;;;;;;13.00;8.67;;;;;16.67;100.00;99059.56;2061961;28;46415;-59
2023/10/28 00:26:06;;;;;;;;;4.00;3.00;;;;;16.67;100.00;99057.78;2062593;28;46654;-56
2023/10/28 00:27:06;;;;;;;;;4.50;2.50;;;;;16.68;100.00;99064.84;2062518;28;46942;-59
2023/10/28 00:28:06;;;;;;;;;6.67;5.67;;;;;16.69;100.00;99060.34;2062492;28;46585;-56
2023/10/28 00:29:07;;;;;;;;;2.00;2.00;;;;;16.70;100.00;99056.69;2062541;28;46740;-57
2023/10/28 00:30:08;;;;;;;;;6.00;5.00;;;;;16.70;100.00;99062.03;2062603;28;46246;-57
2023/10/28 00:31:08;;;;;;;;;5.50;4.75;;;;;16.70;100.00;99057.53;2061837;28;45234;-57
2023/10/28 00:32:09;;;;;;;;;4.33;3.67;;;;;16.69;100.00;99052.31;2061762;28;46878;-59
2023/10/28 00:33:09;;;;;;;;;4.00;4.00;;;;;16.69;100.00;99049.63;2062859;28;46217;-57
2023/10/28 00:34:09;;;;;;;;;5.33;4.33;;;;;16.69;100.00;99050.47;2062624;28;46304;-59
2023/10/28 00:35:11;;;;;;;;;1.00;1.00;;;;;16.66;100.00;99045.31;2062257;28;46770;-58
2023/10/28 00:36:11;;;;;;;;;9.00;7.50;;;;;16.70;100.00;99052.19;2063648;28;46198;-58
2023/10/28 00:37:12;;;;;;;;;6.00;6.00;;;;;16.72;100.00;99050.25;2063602;28;46826;-59
2023/10/28 00:38:12;;;;;;;;;4.67;3.67;;;;;16.71;100.00;99053.03;2063539;28;46538;-56
2023/10/28 00:39:13;;;;;;;;;5.67;3.00;;;;;16.70;100.00;99049.50;2060064;28;46621;-59
2023/10/28 00:40:15;;;;;;;;;4.00;4.00;;;;;16.70;100.00;99046.81;2063111;28;46292;-58
2023/10/28 00:41:17;;;;;;;;;3.00;3.00;;;;;16.69;100.00;99050.47;2063235;28;46442;-55
2023/10/28 00:42:17;;;;;;;;;6.25;5.25;;;;;16.71;100.00;99047.69;2063276;28;46149;-58
2023/10/28 00:43:22;;;;;;;;;5.00;4.00;;;;;16.73;100.00;99045.75;2055630;28;45790;-57
2023/10/28 00:44:22;;;;;;;;;3.25;3.25;;;;;16.71;100.00;99045.00;2054810;28;46680;-57
2023/10/28 00:45:22;;;;;;;;;6.67;4.67;;;;;16.70;100.00;99054.88;2058527;28;46345;-57
2023/10/28 00:46:23;;;;;;;;;6.00;4.00;;;;;16.70;100.00;99040.63;2054775;28;46038;-59
2023/10/28 00:47:23;;;;;;;;;3.67;3.33;;;;;16.70;100.00;99037.94;2062982;28;46994;-55
2023/10/28 00:48:24;;;;;;;;;2.67;2.67;;;;;16.70;100.00;99035.25;2063765;28;45267;-55
2023/10/28 00:49:24;;;;;;;;;3.00;3.00;;;;;16.71;100.00;99042.31;2063549;28;46304;-54
2023/10/28 00:50:25;;;;;;;;;3.67;3.67;;;;;16.69;100.00;99037.09;2063528;28;46735;-58
2023/10/28 00:51:26;;;;;;;;;3.33;2.33;;;;;16.69;100.00;99044.25;2063898;28;45490;-59
2023/10/28 00:52:27;;;;;;;;;3.75;3.00;;;;;16.70;100.00;99044.16;2063231;28;46456;-57
2023/10/28 00:53:28;;;;;;;;;3.75;3.75;;;;;16.72;100.00;99042.22;2055105;28;46534;-54
2023/10/28 00:54:29;;;;;;;;;1.67;1.67;;;;;16.74;100.00;99044.78;2055425;28;45116;-57
2023/10/28 00:55:30;;;;;;;;;1.00;1.00;;;;;16.72;100.00;99034.16;2058298;28;45382;-55
2023/10/28 00:56:31;;;;;;;;;0.25;0.25;;;;;16.73;100.00;99027.84;2059150;28;46843;-60
2023/10/28 00:57:32;;;;;;;;;5.33;3.33;;;;;16.72;100.00;99036.84;2060255;28;45110;-58
2023/10/28 00:58:34;;;;;;;;;1.25;1.25;;;;;16.73;100.00;99035.03;2055461;28;46351;-57
2023/10/28 00:59:34;;;;;;;;;1.00;1.00;;;;;16.72;100.00;99033.31;2055674;28;46238;-58
2023/10/28 01:00:35;;;;;;;;;1.00;1.00;;;;;16.70;100.00;99030.75;2062483;28;46031;-58
2023/10/28 01:01:36;;;;;;;;;1.67;1.67;;;;;16.71;100.00;99029.78;2104739;28;46814;-57
2023/10/28 01:02:38;;;;;;;;;2.67;2.67;;;;;16.71;100.00;99032.47;2099132;28;46318;-54
2023/10/28 01:03:42;;;;;;;;;3.00;3.00;;;;;16.73;100.00;99029.66;2061024;28;46965;-61
2023/10/28 01:04:43;;;;;;;;;2.75;1.50;;;;;16.72;100.00;99023.47;2063128;28;46891;-56
2023/10/28 01:05:45;;;;;;;;;0.67;0.67;;;;;16.73;100.00;99038.56;2063038;28;46714;-56
2023/10/28 01:06:46;;;;;;;;;4.00;3.00;;;;;16.73;100.00;99030.53;2062993;28;46835;-58
2023/10/28 01:07:49;;;;;;;;;2.00;2.00;;;;;16.74;100.00;99031.38;2063247;28;47107;-59
2023/10/28 01:08:49;;;;;;;;;5.00;2.75;;;;;16.73;100.00;99029.66;2063959;28;45714;-57
2023/10/28 01:09:49;;;;;;;;;2.67;1.33;;;;;16.73;100.00;99022.47;2062898;28;46173;-58
2023/10/28 01:10:50;;;;;;;;;1.67;1.67;;;;;16.74;100.00;99034.06;2062936;28;45125;-59
2023/10/28 01:11:53;;;;;;;;;3.00;2.00;;;;;16.75;100.00;99035.75;2063249;28;46664;-56
2023/10/28 01:12:54;;;;;;;;;1.25;1.25;;;;;16.73;100.00;99030.53;2063524;28;46038;-54
2023/10/28 01:13:54;;;;;;;;;3.67;2.67;;;;;16.72;100.00;99027.97;2056603;28;46445;-55
2023/10/28 01:14:56;;;;;;;;;4.33;2.67;;;;;16.70;100.00;99020.03;2061347;28;45846;-57
2023/10/28 01:15:59;;;;;;;;;2.75;0.75;;;;;16.69;100.00;99023.69;2062675;28;46299;-51
2023/10/28 01:17:03;;;;;;;;;2.75;2.25;;;;;16.68;100.00;99026.47;2055021;28;47272;-59
2023/10/28 01:18:04;;;;;;;;;1.75;1.75;;;;;16.67;100.00;99028.31;2055267;28;46691;-57
2023/10/28 01:19:05;;;;;;;;;3.00;3.00;;;;;16.67;100.00;99022.94;2055432;28;45567;-55
2023/10/28 01:20:09;;;;;;;;;1.33;1.33;;;;;16.65;100.00;99024.88;2055606;28;46768;-58
2023/10/28 01:21:11;;;;;;;;;2.50;1.25;;;;;16.66;100.00;99025.72;2055202;28;48080;-56
2023/10/28 01:22:11;;;;;;;;;2.00;2.00;;;;;16.65;100.00;99021.34;2055376;28;46376;-58
2023/10/28 01:23:12;;;;;;;;;4.33;3.67;;;;;16.65;100.00;99024.00;2055422;28;45829;-56
2023/10/28 01:24:12;;;;;;;;;4.33;4.33;;;;;16.64;100.00;99022.25;2062402;28;46188;-55
2023/10/28 01:25:12;;;;;;;;;2.33;2.00;;;;;16.64;100.00;99024.94;2088722;28;46259;-57
2023/10/28 01:26:13;;;;;;;;;3.00;3.00;;;;;16.62;100.00;99024.22;2063437;28;46185;-57
2023/10/28 01:27:13;;;;;;;;;2.67;2.67;;;;;16.62;100.00;99032.25;2063887;28;45211;-55
2023/10/28 01:28:13;;;;;;;;;0.00;0.00;;;;;16.62;100.00;99022.38;2063376;28;46727;-58
2023/10/28 01:29:14;;;;;;;;;4.33;3.00;;;;;16.62;100.00;99021.53;2063087;28;45691;-58
2023/10/28 01:30:14;;;;;;;;;1.00;1.00;;;;;16.62;100.00;99021.53;2062704;28;46412;-57
2023/10/28 01:31:17;;;;;;;;;3.00;2.33;;;;;16.64;100.00;99019.59;2063383;28;46510;-57
2023/10/28 01:32:17;;;;;;;;;1.25;1.25;;;;;16.64;100.00;99012.44;2062989;28;46407;-59
2023/10/28 01:33:19;;;;;;;;;1.00;1.00;;;;;16.65;100.00;99011.47;2063565;28;46311;-59
2023/10/28 01:34:22;;;;;;;;;3.50;1.00;;;;;16.68;100.00;99013.94;2063490;28;46514;-56
2023/10/28 01:35:23;;;;;;;;;2.75;2.75;;;;;16.71;100.00;99018.22;2063266;28;46565;-58
2023/10/28 01:36:23;;;;;;;;;3.00;3.00;;;;;16.71;100.00;99016.41;2063484;28;46286;-59
2023/10/28 01:37:23;;;;;;;;;1.33;0.67;;;;;16.75;100.00;99019.69;2062996;28;46319;-54
2023/10/28 01:38:24;;;;;;;;;3.67;1.00;;;;;16.75;100.00;99007.16;2062445;28;46724;-56
2023/10/28 01:39:25;;;;;;;;;3.00;1.33;;;;;16.76;100.00;99006.19;2063573;28;46508;-59
2023/10/28 01:40:26;;;;;;;;;1.50;1.50;;;;;16.77;100.00;99007.06;2062468;28;46414;-53
2023/10/28 01:41:26;;;;;;;;;1.00;1.00;;;;;16.77;100.00;99004.38;2063273;28;45091;-57
2023/10/28 01:42:27;;;;;;;;;1.67;1.00;;;;;16.76;100.00;99010.69;2055038;28;46837;-59
2023/10/28 01:43:28;;;;;;;;;2.67;1.00;;;;;16.75;100.00;99012.50;2054805;28;46126;-56
2023/10/28 01:44:32;;;;;;;;;1.75;1.75;;;;;16.75;100.00;99009.81;2062678;28;46958;-57
2023/10/28 01:45:32;;;;;;;;;1.00;1.00;;;;;16.75;100.00;99011.66;2061446;28;46993;-57
2023/10/28 01:46:32;;;;;;;;;3.33;2.00;;;;;16.75;100.00;99009.81;2063666;28;45849;-58
2023/10/28 01:47:33;;;;;;;;;4.00;4.00;;;;;16.75;100.00;99007.16;2062055;28;46239;-58
2023/10/28 01:48:33;;;;;;;;;3.67;2.33;;;;;16.76;100.00;99008.00;2062537;28;46823;-59
2023/10/28 01:49:37;;;;;;;;;2.00;2.00;;;;;16.79;100.00;99012.31;2063325;28;46556;-56
2023/10/28 01:50:38;;;;;;;;;1.75;1.75;;;;;16.79;100.00;99012.31;2063346;28;46602;-55
2023/10/28 01:51:38;;;;;;;;;2.00;2.00;;;;;16.76;100.00;98998.13;2063506;28;45811;-54
2023/10/28 01:52:40;;;;;;;;;3.67;1.67;;;;;16.73;100.00;99006.41;2063237;28;46693;-58
2023/10/28 01:53:40;;;;;;;;;1.50;1.50;;;;;16.73;100.00;99011.78;2063656;28;45595;-59
2023/10/28 01:54:41;;;;;;;;;3.00;2.00;;;;;16.72;100.00;99010.06;2063020;28;46265;-53
2023/10/28 01:55:41;;;;;;;;;1.67;1.67;;;;;16.74;100.00;99010.81;2062882;28;46144;-56
2023/10/28 01:56:43;;;;;;;;;3.00;3.00;;;;;16.73;100.00;99008.25;2062893;28;46619;-58
2023/10/28 01:57:43;;;;;;;;;3.00;3.00;;;;;16.72;100.00;99009.22;2062618;28;46030;-59
2023/10/28 01:58:43;;;;;;;;;3.00;3.00;;;;;16.73;100.00;99016.28;2062966;28;46736;-61
2023/10/28 01:59:44;;;;;;;;;2.00;2.00;;;;;16.74;100.00;99015.31;2063190;28;46379;-59
2023/10/28 02:00:44;;;;;;;;;0.67;0.67;;;;;16.74;100.00;99010.81;2063075;28;45564;-57
2023/10/28 02:01:45;;;;;;;;;2.00;2.00;;;;;16.74;100.00;99004.59;2062608;28;46593;-59
2023/10/28 02:02:45;;;;;;;;;1.67;1.33;;;;;16.74;100.00;99015.31;2063510;28;46117;-58
2023/10/28 02:03:46;;;;;;;;;2.33;2.33;;;;;16.74;100.00;99005.44;2062361;28;46474;-59
2023/10/28 02:04:47;;;;;;;;;2.00;2.00;;;;;16.75;100.00;99007.16;2062602;28;46528;-60
2023/10/28 02:05:47;;;;;;;;;2.00;2.00;;;;;16.73;100.00;99010.91;2062767;28;46872;-53
2023/10/28 02:06:50;;;;;;;;;0.33;0.33;;;;;16.73;100.00;99010.91;2063156;28;45508;-59
2023/10/28 02:07:50;;;;;;;;;1.75;1.75;;;;;16.73;100.00;99005.56;2063190;28;46807;-57
2023/10/28 02:08:50;;;;;;;;;3.67;3.00;;;;;16.71;100.00;99005.69;2063458;28;46276;-57
2023/10/28 02:09:52;;;;;;;;;2.00;2.00;;;;;16.70;100.00;99005.78;2062935;28;46764;-53
2023/10/28 02:10:52;;;;;;;;;2.25;1.25;;;;;16.69;100.00;99009.44;2063300;28;46699;-57
2023/10/28 02:11:53;;;;;;;;;1.67;1.67;;;;;16.69;100.00;98996.06;2063566;28;45942;-56
2023/10/28 02:12:54;;;;;;;;;5.00;4.00;;;;;16.68;100.00;99000.56;2062366;28;46642;-54
2023/10/28 02:13:54;;;;;;;;;3.00;3.00;;;;;16.70;100.00;99005.78;2062868;28;45663;-55
2023/10/28 02:14:55;;;;;;;;;1.67;0.67;;;;;16.71;100.00;99005.69;2063340;28;46749;-58
2023/10/28 02:15:55;;;;;;;;;1.67;1.67;;;;;16.72;100.00;99007.38;2062882;28;46611;-57
2023/10/28 02:16:56;;;;;;;;;1.00;1.00;;;;;16.70;100.00;99001.28;2053889;28;46654;-55
2023/10/28 02:17:57;;;;;;;;;2.75;2.75;;;;;16.71;100.00;98999.47;2054107;28;46777;-56
2023/10/28 02:18:57;;;;;;;;;1.00;1.00;;;;;16.71;100.00;98997.63;2063248;28;45297;-56
2023/10/28 02:19:58;;;;;;;;;2.00;2.00;;;;;16.72;100.00;99001.19;2063299;28;45660;-58
2023/10/28 02:20:58;;;;;;;;;0.00;0.00;;;;;16.71;100.00;98989.59;2063240;28;46633;-59
2023/10/28 02:21:59;;;;;;;;;1.00;1.00;;;;;16.72;100.00;98987.78;2063223;28;46376;-60
2023/10/28 02:22:59;;;;;;;;;2.00;2.00;;;;;16.68;100.00;98989.00;2062025;28;44935;-56
2023/10/28 02:24:00;;;;;;;;;2.67;2.67;;;;;16.68;100.00;98992.53;2054707;28;46204;-58
2023/10/28 02:25:00;;;;;;;;;2.50;2.00;;;;;16.67;100.00;98996.16;2062543;28;46852;-61
2023/10/28 02:26:01;;;;;;;;;1.33;1.33;;;;;16.66;100.00;98991.75;2063211;28;46187;-55
2023/10/28 02:27:02;;;;;;;;;2.00;2.00;;;;;16.63;100.00;98997.31;2063056;28;46480;-54
2023/10/28 02:28:02;;;;;;;;;1.00;1.00;;;;;16.64;100.00;98998.16;2063135;28;46199;-59
2023/10/28 02:29:02;;;;;;;;;1.67;1.67;;;;;16.63;100.00;98994.63;2063318;28;46496;-57
2023/10/28 02:30:06;;;;;;;;;2.00;2.00;;;;;16.65;100.00;98992.72;2057435;28;46728;-57
2023/10/28 02:31:09;;;;;;;;;0.75;0.75;;;;;16.66;100.00;98988.22;2054849;28;45377;-55
2023/10/28 02:32:10;;;;;;;;;1.50;1.50;;;;;16.65;100.00;98994.53;2055079;28;46450;-57
2023/10/28 02:33:10;;;;;;;;;1.33;0.67;;;;;16.66;100.00;98985.53;2059609;28;46416;-58
2023/10/28 02:34:11;;;;;;;;;0.00;0.00;;;;;16.65;100.00;98986.50;2063140;28;46841;-57
2023/10/28 02:35:12;;;;;;;;;0.25;0.00;;;;;16.65;100.00;98987.38;2063614;28;45592;-60
2023/10/28 02:36:13;;;;;;;;;0.25;0.25;;;;;16.65;100.00;98971.28;2063226;28;46324;-56
2023/10/28 02:37:14;;;;;;;;;2.00;1.00;;;;;16.68;100.00;98980.94;2062814;28;46458;-58
2023/10/28 02:38:15;;;;;;;;;4.00;2.33;;;;;16.67;100.00;98977.41;2062600;28;46309;-58
2023/10/28 02:39:17;;;;;;;;;1.50;1.00;;;;;16.70;100.00;98981.69;2062296;28;46198;-57
2023/10/28 02:40:18;;;;;;;;;1.75;1.75;;;;;16.71;100.00;98978.03;2063693;28;46947;-59
2023/10/28 02:41:18;;;;;;;;;0.00;0.00;;;;;16.72;100.00;98982.41;2063120;28;46653;-57
2023/10/28 02:42:22;;;;;;;;;2.67;2.67;;;;;16.72;100.00;98974.38;2063234;28;46267;-58
2023/10/28 02:43:26;;;;;;;;;1.25;1.25;;;;;16.73;100.00;98976.94;2062991;28;46568;-58
2023/10/28 02:44:26;;;;;;;;;2.00;2.00;;;;;16.73;100.00;98979.63;2063818;28;46247;-57
2023/10/28 02:45:27;;;;;;;;;2.00;1.00;;;;;16.74;100.00;98977.81;2062795;28;46857;-58
2023/10/28 02:46:27;;;;;;;;;0.75;0.75;;;;;16.74;100.00;98972.44;2063338;28;46715;-58
2023/10/28 02:47:31;;;;;;;;;2.00;2.00;;;;;16.75;100.00;98968.78;2063492;28;46290;-55
2023/10/28 02:48:31;;;;;;;;;3.00;3.00;;;;;16.75;100.00;98972.31;2063089;28;47043;-57
2023/10/28 02:49:34;;;;;;;;;3.67;2.00;;;;;16.76;100.00;98971.34;2063244;28;46607;-59
2023/10/28 02:50:36;;;;;;;;;2.00;1.00;;;;;16.77;100.00;98975.78;2062496;28;46727;-58
2023/10/28 02:51:36;;;;;;;;;2.25;2.25;;;;;16.76;100.00;98967.81;2062591;28;46445;-58
2023/10/28 02:52:37;;;;;;;;;0.67;0.00;;;;;16.77;100.00;98974.91;2063062;28;46671;-58
2023/10/28 02:53:37;;;;;;;;;1.33;1.00;;;;;16.77;100.00;98961.53;2063188;28;46270;-58
2023/10/28 02:54:38;;;;;;;;;2.33;2.00;;;;;16.77;100.00;98967.72;2063050;28;46187;-58
2023/10/28 02:55:38;;;;;;;;;1.00;1.00;;;;;16.78;100.00;98965.91;2062735;28;45712;-58
2023/10/28 02:56:38;;;;;;;;;2.33;1.00;;;;;16.80;100.00;98972.00;2062604;28;46467;-57
2023/10/28 02:57:39;;;;;;;;;2.67;1.67;;;;;16.80;100.00;98968.47;2058269;28;46991;-59
2023/10/28 02:58:39;;;;;;;;;3.67;2.67;;;;;16.80;100.00;98966.66;2054321;28;46590;-59
2023/10/28 02:59:40;;;;;;;;;1.67;1.67;;;;;16.82;100.00;98966.53;2061403;28;45645;-55
2023/10/28 03:00:40;;;;;;;;;1.67;1.67;;;;;16.81;100.00;98952.28;2060230;28;46695;-56
2023/10/28 03:01:41;;;;;;;;;0.67;0.67;;;;;16.81;100.00;98968.34;2054448;28;46202;-58
2023/10/28 03:02:41;;;;;;;;;2.00;1.33;;;;;16.80;100.00;98966.66;2062258;28;46491;-55
2023/10/28 03:03:43;;;;;;;;;3.00;0.67;;;;;16.79;100.00;98954.22;2062559;28;46297;-60
2023/10/28 03:04:43;;;;;;;;;1.25;0.75;;;;;16.75;100.00;98950.91;2065325;28;45706;-58
2023/10/28 03:05:43;;;;;;;;;2.67;1.67;;;;;16.74;100.00;98953.69;2063443;28;46293;-58
2023/10/28 03:06:45;;;;;;;;;2.67;1.33;;;;;16.73;100.00;98950.16;2055136;28;46587;-57
2023/10/28 03:07:45;;;;;;;;;2.75;0.75;;;;;16.70;100.00;98936.16;2060630;28;46339;-53
2023/10/28 03:08:45;;;;;;;;;3.00;2.00;;;;;16.71;100.00;98945.91;2061983;28;46282;-57
2023/10/28 03:09:46;;;;;;;;;4.00;2.33;;;;;16.72;100.00;98951.13;2062949;28;46266;-58
2023/10/28 03:10:46;;;;;;;;;2.67;2.00;;;;;16.71;100.00;98954.78;2062888;28;46201;-57
2023/10/28 03:11:46;;;;;;;;;1.67;1.67;;;;;16.73;100.00;98958.19;2062834;28;46468;-59
2023/10/28 03:12:47;;;;;;;;;1.00;0.67;;;;;16.75;100.00;98961.63;2062777;28;45867;-58
2023/10/28 03:13:48;;;;;;;;;0.75;0.75;;;;;16.77;100.00;98961.53;2062646;28;46496;-59
2023/10/28 03:14:48;;;;;;;;;0.33;0.33;;;;;16.79;100.00;98966.75;2061359;28;46830;-58
2023/10/28 03:15:49;;;;;;;;;1.00;1.00;;;;;16.77;100.00;98965.06;2062041;28;45883;-59
2023/10/28 03:16:49;;;;;;;;;2.00;2.00;;;;;16.79;100.00;98964.94;2062587;28;46773;-53
2023/10/28 03:17:49;;;;;;;;;0.67;0.67;;;;;16.79;100.00;98969.44;2062904;28;46420;-58
2023/10/28 03:18:50;;;;;;;;;1.00;1.00;;;;;16.76;100.00;98968.69;2062581;28;46770;-56
2023/10/28 03:19:51;;;;;;;;;1.00;1.00;;;;;16.74;100.00;98978.66;2063102;28;46266;-55
2023/10/28 03:20:51;;;;;;;;;2.00;2.00;;;;;16.74;100.00;98983.16;2063287;28;46199;-56
2023/10/28 03:21:52;;;;;;;;;1.00;1.00;;;;;16.72;100.00;98974.38;2063133;28;45625;-57
2023/10/28 03:22:52;;;;;;;;;3.00;2.00;;;;;16.72;100.00;98977.06;2062991;28;45515;-55
2023/10/28 03:23:52;;;;;;;;;0.67;0.67;;;;;16.70;100.00;98985.22;2062912;28;46381;-58
2023/10/28 03:24:53;;;;;;;;;3.00;1.50;;;;;16.73;100.00;98986.81;2062816;28;46171;-55
2023/10/28 03:25:53;;;;;;;;;1.33;1.00;;;;;16.73;100.00;98990.34;2063154;28;46811;-59
2023/10/28 03:26:53;;;;;;;;;1.00;1.00;;;;;16.71;100.00;98994.97;2062824;28;45974;-58
2023/10/28 03:27:53;;;;;;;;;1.00;0.33;;;;;16.71;100.00;98997.63;2063366;28;46054;-57
2023/10/28 03:28:54;;;;;;;;;2.00;2.00;;;;;16.72;100.00;98985.94;2062592;28;46258;-55
2023/10/28 03:29:54;;;;;;;;;0.67;0.00;;;;;16.73;100.00;98986.81;2062845;28;46301;-57
2023/10/28 03:30:55;;;;;;;;;0.67;0.67;;;;;16.75;100.00;98993.75;2062819;28;46409;-60
2023/10/28 03:31:55;;;;;;;;;0.67;0.67;;;;;16.73;100.00;98994.84;2060393;28;45843;-58
2023/10/28 03:32:55;;;;;;;;;2.00;2.00;;;;;16.70;100.00;98990.56;2062411;28;46732;-59
2023/10/28 03:33:55;;;;;;;;;0.67;0.67;;;;;16.73;100.00;98994.84;2062597;28;46312;-59
2023/10/28 03:34:56;;;;;;;;;1.67;1.67;;;;;16.72;100.00;98987.78;2062736;28;46212;-57
2023/10/28 03:35:57;;;;;;;;;1.00;1.00;;;;;16.71;100.00;98986.94;2062587;28;46297;-57
2023/10/28 03:36:57;;;;;;;;;1.00;1.00;;;;;16.73;100.00;98989.50;2062677;28;46809;-59
2023/10/28 03:37:57;;;;;;;;;2.00;2.00;;;;;16.73;100.00;98986.81;2062912;28;46801;-56
2023/10/28 03:38:57;;;;;;;;;0.33;0.33;;;;;16.71;100.00;98980.72;2062646;28;46703;-54
2023/10/28 03:39:59;;;;;;;;;1.00;1.00;;;;;16.73;100.00;98987.66;2062267;28;45804;-58
2023/10/28 03:41:05;;;;;;;;;0.75;0.75;;;;;16.73;100.00;98993.03;2062188;28;46796;-58
2023/10/28 03:42:08;;;;;;;;;1.25;1.25;;;;;16.57;100.00;98994.25;2054993;28;46614;-56
2023/10/28 03:43:09;;;;;;;;;1.50;1.50;;;;;16.71;100.00;98986.94;2058268;28;46423;-59
2023/10/28 03:44:10;;;;;;;;;1.75;1.50;;;;;16.71;100.00;98986.06;2063097;28;46068;-59
2023/10/28 03:45:10;;;;;;;;;1.00;1.00;;;;;16.70;100.00;98995.09;2055298;28;46778;-59
2023/10/28 03:46:18;;;;;;;;;0.00;0.00;;;;;16.70;100.00;98987.91;2054798;28;46314;-57
2023/10/28 03:47:18;;;;;;;;;0.75;0.75;;;;;16.69;100.00;98996.91;2054593;28;46603;-56
2023/10/28 03:48:18;;;;;;;;;1.33;0.00;;;;;16.68;100.00;98983.63;2054605;28;46236;-56
2023/10/28 03:49:19;;;;;;;;;1.00;1.00;;;;;16.65;100.00;98986.50;2054602;28;45982;-58
2023/10/28 03:50:20;;;;;;;;;3.00;1.00;;;;;16.63;100.00;98981.25;2055037;28;45894;-57
2023/10/28 03:51:20;;;;;;;;;0.75;0.00;;;;;16.60;100.00;98984.16;2054434;28;46731;-58
2023/10/28 03:52:20;;;;;;;;;0.33;0.33;;;;;16.61;100.00;98985.00;2054637;28;46587;-57
2023/10/28 03:53:21;;;;;;;;;1.00;1.00;;;;;16.59;100.00;98984.28;2061649;28;46320;-57
2023/10/28 03:54:21;;;;;;;;;2.00;0.67;;;;;16.60;100.00;98986.81;2062621;28;46850;-58
2023/10/28 03:55:23;;;;;;;;;0.67;0.67;;;;;16.61;100.00;99003.75;2062648;28;46658;-57
2023/10/28 03:56:23;;;;;;;;;1.25;1.00;;;;;16.61;100.00;98987.69;2063166;28;46605;-56
2023/10/28 03:57:23;;;;;;;;;0.00;0.00;;;;;16.61;100.00;99003.75;2062781;28;46407;-56
2023/10/28 03:58:24;;;;;;;;;1.00;1.00;;;;;16.61;100.00;99001.06;2062316;28;46322;-52
2023/10/28 03:59:24;;;;;;;;;0.67;0.67;;;;;16.58;100.00;99001.31;2062848;28;46809;-57
2023/10/28 04:00:24;;;;;;;;;1.00;1.00;;;;;16.61;100.00;98998.41;2062650;28;47006;-59
2023/10/28 04:01:25;;;;;;;;;0.00;0.00;;;;;16.60;100.00;99010.94;2062956;28;46371;-61
2023/10/28 04:02:28;;;;;;;;;0.33;0.33;;;;;16.59;100.00;99011.91;2062132;28;45564;-55
2023/10/28 04:03:29;;;;;;;;;2.50;2.00;;;;;16.57;100.00;99007.63;2062301;28;46811;-57
2023/10/28 04:04:29;;;;;;;;;1.67;0.33;;;;;16.53;100.00;99012.38;2062005;28;46590;-56
2023/10/28 04:05:30;;;;;;;;;1.33;1.33;;;;;16.46;100.00;99013.78;2062164;28;46330;-56
2023/10/28 04:06:30;;;;;;;;;3.00;2.00;;;;;16.45;100.00;99020.94;2087319;28;46688;-56
2023/10/28 04:07:31;;;;;;;;;2.67;0.33;;;;;16.56;100.00;99008.59;2095691;28;46979;-58
2023/10/28 04:08:31;;;;;;;;;1.00;1.00;;;;;16.53;100.00;99011.50;2061382;28;46173;-54
2023/10/28 04:09:32;;;;;;;;;1.67;1.67;;;;;16.49;100.00;99008.19;2054021;28;46853;-58
2023/10/28 04:10:33;;;;;;;;;2.33;2.33;;;;;16.51;100.00;99011.59;2057828;28;46899;-59
2023/10/28 04:11:33;;;;;;;;;3.33;0.33;;;;;16.52;100.00;99013.34;2062856;28;45535;-58
2023/10/28 04:12:34;;;;;;;;;0.00;0.00;;;;;16.49;100.00;99014.41;2053882;28;45742;-56
2023/10/28 04:13:34;;;;;;;;;2.00;2.00;;;;;16.52;100.00;99016.03;2053906;28;46556;-55
2023/10/28 04:14:35;;;;;;;;;0.33;0.33;;;;;16.55;100.00;99025.66;2062130;28;45641;-58
2023/10/28 04:15:36;;;;;;;;;1.00;1.00;;;;;16.54;100.00;99023.94;2061641;28;46450;-58
2023/10/28 04:16:36;;;;;;;;;2.67;2.67;;;;;16.53;100.00;99020.41;2062316;28;46708;-58
2023/10/28 04:17:36;;;;;;;;;0.33;0.33;;;;;16.38;100.00;99021.50;2062749;28;46802;-57
2023/10/28 04:18:37;;;;;;;;;0.33;0.33;;;;;16.54;100.00;99018.56;2062495;28;46486;-58
2023/10/28 04:19:37;;;;;;;;;1.00;1.00;;;;;16.54;100.00;99021.25;2062017;28;46249;-57
2023/10/28 04:20:39;;;;;;;;;1.67;1.67;;;;;16.54;100.00;99026.63;2061884;28;46266;-57
2023/10/28 04:21:39;;;;;;;;;1.75;1.50;;;;;16.55;100.00;99021.16;2062050;28;46610;-58
2023/10/28 04:22:40;;;;;;;;;2.67;1.33;;;;;16.57;100.00;99031.75;2054092;28;46263;-57
2023/10/28 04:23:41;;;;;;;;;1.00;0.00;;;;;16.57;100.00;99029.06;2054035;28;46150;-55
2023/10/28 04:24:41;;;;;;;;;0.75;0.75;;;;;16.56;100.00;99027.34;2062612;28;48422;-56
2023/10/28 04:25:42;;;;;;;;;0.00;0.00;;;;;16.57;100.00;99029.91;2062416;28;46511;-58
2023/10/28 04:26:42;;;;;;;;;2.00;2.00;;;;;16.57;100.00;99027.22;2070191;28;46662;-54
2023/10/28 04:27:43;;;;;;;;;1.00;0.33;;;;;16.53;100.00;99028.44;2070148;28;46658;-60
2023/10/28 04:28:43;;;;;;;;;1.33;1.00;;;;;16.58;100.00;99022.72;2055727;28;46761;-60
2023/10/28 04:29:44;;;;;;;;;2.00;1.67;;;;;16.52;100.00;99032.09;2061979;28;46011;-57
2023/10/28 04:30:57;;;;;;;;;1.75;1.75;;;;;16.58;100.00;99042.34;2061789;28;46442;-57
2023/10/28 04:31:57;;;;;;;;;2.25;0.50;;;;;16.47;100.00;99039.56;2067828;28;46367;-59
2023/10/28 04:32:58;;;;;;;;;1.67;1.67;;;;;16.58;100.00;99033.44;2067837;28;45327;-58
2023/10/28 04:34:00;;;;;;;;;0.33;0.33;;;;;16.57;100.00;99021.88;2053940;28;46525;-58
2023/10/28 04:35:01;;;;;;;;;2.50;1.25;;;;;16.57;100.00;99031.75;2058921;28;46670;-58
2023/10/28 04:36:01;;;;;;;;;2.33;1.00;;;;;16.55;100.00;99018.47;2069531;28;48166;-59
2023/10/28 04:37:01;;;;;;;;;2.00;1.00;;;;;16.54;100.00;99027.47;2070262;28;46666;-57
2023/10/28 04:38:02;;;;;;;;;3.00;3.00;;;;;16.54;100.00;99027.47;2053481;28;46327;-52
2023/10/28 04:39:03;;;;;;;;;0.67;0.67;;;;;16.54;100.00;99026.63;2055399;28;46652;-55
2023/10/28 04:40:05;;;;;;;;;2.00;0.67;;;;;16.52;100.00;99036.59;2062520;28;46259;-57
2023/10/28 04:41:08;;;;;;;;;2.25;2.25;;;;;16.51;100.00;99027.66;2062391;28;46708;-57
2023/10/28 04:42:08;;;;;;;;;1.75;1.75;;;;;16.50;100.00;99039.34;2062494;28;46946;-57
2023/10/28 04:43:08;;;;;;;;;1.67;1.00;;;;;16.49;100.00;99027.78;2057581;28;46339;-55